sensor_id;sensor_type;location;lat;lon;timestamp;P1;durP1;ratioP1;P2;durP2;ratioP2
40459;SDS011;26164;51.138;16.952;2023-01-16T05:27:59;7.20;;;1.55;;
40459;SDS011;26164;51.138;16.952;2023-01-16T05:34:39;6.00;;;1.20;;
40459;SDS011;26164;51.138;16.952;2023-01-16T05:38:14;5.55;;;1.65;;
40459;SDS011;26164;51.138;16.952;2023-01-16T05:41:14;9.10;;;1.70;;
40459;SDS011;26164;51.138;16.952;2023-01-16T05:43:55;5.18;;;1.77;;
40459;SDS011;26164;51.138;16.952;2023-01-16T05:46:46;6.95;;;1.63;;
40459;SDS011;26164;51.138;16.952;2023-01-16T05:52:24;5.70;;;1.45;;
40459;SDS011;26164;51.138;16.952;2023-01-16T05:55:15;3.97;;;1.60;;
40459;SDS011;26164;51.138;16.952;2023-01-16T06:03:46;5.72;;;2.03;;
40459;SDS011;26164;51.138;16.952;2023-01-16T06:06:12;7.43;;;1.88;;
40459;SDS011;26164;51.138;16.952;2023-01-16T06:08:38;4.35;;;1.40;;
40459;SDS011;26164;51.138;16.952;2023-01-16T06:11:07;7.10;;;1.92;;
40459;SDS011;26164;51.138;16.952;2023-01-16T06:13:33;7.30;;;1.90;;
40459;SDS011;26164;51.138;16.952;2023-01-16T06:16:03;9.32;;;2.45;;
40459;SDS011;26164;51.138;16.952;2023-01-16T06:18:29;7.78;;;2.30;;
40459;SDS011;26164;51.138;16.952;2023-01-16T06:21:00;8.27;;;1.95;;
40459;SDS011;26164;51.138;16.952;2023-01-16T06:23:26;5.28;;;1.90;;
40459;SDS011;26164;51.138;16.952;2023-01-16T06:26:01;5.07;;;1.38;;
40459;SDS011;26164;51.138;16.952;2023-01-16T06:28:28;6.93;;;2.40;;
40459;SDS011;26164;51.138;16.952;2023-01-16T06:30:55;7.63;;;2.05;;
40459;SDS011;26164;51.138;16.952;2023-01-16T06:33:21;6.25;;;2.25;;
40459;SDS011;26164;51.138;16.952;2023-01-16T06:35:57;7.72;;;2.22;;
40459;SDS011;26164;51.138;16.952;2023-01-16T06:38:32;6.82;;;2.42;;
40459;SDS011;26164;51.138;16.952;2023-01-16T06:41:05;9.30;;;2.58;;
40459;SDS011;26164;51.138;16.952;2023-01-16T06:43:49;10.38;;;2.80;;
40459;SDS011;26164;51.138;16.952;2023-01-16T06:46:21;11.02;;;3.00;;
40459;SDS011;26164;51.138;16.952;2023-01-16T06:48:49;7.95;;;2.80;;
40459;SDS011;26164;51.138;16.952;2023-01-16T06:51:20;7.18;;;2.20;;
40459;SDS011;26164;51.138;16.952;2023-01-16T06:53:52;8.40;;;2.30;;
40459;SDS011;26164;51.138;16.952;2023-01-16T06:56:28;6.32;;;1.80;;
40459;SDS011;26164;51.138;16.952;2023-01-16T06:58:55;7.38;;;1.98;;
40459;SDS011;26164;51.138;16.952;2023-01-16T07:01:23;47.03;;;17.13;;
40459;SDS011;26164;51.138;16.952;2023-01-16T07:03:49;13.18;;;5.07;;
40459;SDS011;26164;51.138;16.952;2023-01-16T07:06:22;10.55;;;2.17;;
40459;SDS011;26164;51.138;16.952;2023-01-16T07:08:48;5.03;;;1.50;;
40459;SDS011;26164;51.138;16.952;2023-01-16T07:13:57;7.78;;;1.77;;
40459;SDS011;26164;51.138;16.952;2023-01-16T07:16:42;5.95;;;1.63;;
40459;SDS011;26164;51.138;16.952;2023-01-16T07:19:26;4.03;;;1.85;;
40459;SDS011;26164;51.138;16.952;2023-01-16T07:22:11;5.32;;;1.75;;
40459;SDS011;26164;51.138;16.952;2023-01-16T07:24:57;7.93;;;2.30;;
40459;SDS011;26164;51.138;16.952;2023-01-16T07:27:23;10.45;;;2.10;;
40459;SDS011;26164;51.138;16.952;2023-01-16T07:29:49;5.97;;;2.20;;
40459;SDS011;26164;51.138;16.952;2023-01-16T07:32:16;6.55;;;1.92;;
40459;SDS011;26164;51.138;16.952;2023-01-16T07:34:42;7.80;;;3.28;;
40459;SDS011;26164;51.138;16.952;2023-01-16T07:37:08;22.88;;;9.32;;
40459;SDS011;26164;51.138;16.952;2023-01-16T07:39:36;6.40;;;2.22;;
40459;SDS011;26164;51.138;16.952;2023-01-16T07:42:03;8.73;;;2.35;;
40459;SDS011;26164;51.138;16.952;2023-01-16T07:44:33;12.00;;;3.13;;
40459;SDS011;26164;51.138;16.952;2023-01-16T07:47:00;7.72;;;2.20;;
40459;SDS011;26164;51.138;16.952;2023-01-16T07:49:25;5.60;;;1.95;;
40459;SDS011;26164;51.138;16.952;2023-01-16T07:51:51;7.75;;;2.25;;
40459;SDS011;26164;51.138;16.952;2023-01-16T07:54:17;8.48;;;1.77;;
40459;SDS011;26164;51.138;16.952;2023-01-16T07:56:43;9.77;;;2.80;;
40459;SDS011;26164;51.138;16.952;2023-01-16T07:59:09;7.70;;;2.50;;
40459;SDS011;26164;51.138;16.952;2023-01-16T08:01:35;6.55;;;2.42;;
40459;SDS011;26164;51.138;16.952;2023-01-16T08:04:00;11.23;;;4.38;;
40459;SDS011;26164;51.138;16.952;2023-01-16T08:06:26;15.13;;;6.15;;
40459;SDS011;26164;51.138;16.952;2023-01-16T08:08:52;12.50;;;4.82;;
40459;SDS011;26164;51.138;16.952;2023-01-16T08:11:18;14.05;;;5.28;;
40459;SDS011;26164;51.138;16.952;2023-01-16T08:16:30;15.43;;;2.80;;
40459;SDS011;26164;51.138;16.952;2023-01-16T08:18:56;7.18;;;2.13;;
40459;SDS011;26164;51.138;16.952;2023-01-16T08:21:22;8.45;;;2.00;;
40459;SDS011;26164;51.138;16.952;2023-01-16T08:23:47;8.13;;;2.13;;
40459;SDS011;26164;51.138;16.952;2023-01-16T08:26:13;5.32;;;1.60;;
40459;SDS011;26164;51.138;16.952;2023-01-16T08:28:42;6.32;;;1.85;;
40459;SDS011;26164;51.138;16.952;2023-01-16T08:31:09;7.93;;;2.00;;
40459;SDS011;26164;51.138;16.952;2023-01-16T08:33:42;4.78;;;1.55;;
40459;SDS011;26164;51.138;16.952;2023-01-16T08:36:11;12.98;;;1.80;;
40459;SDS011;26164;51.138;16.952;2023-01-16T08:38:42;5.72;;;1.27;;
40459;SDS011;26164;51.138;16.952;2023-01-16T08:41:09;5.45;;;1.38;;
40459;SDS011;26164;51.138;16.952;2023-01-16T08:44:02;7.57;;;1.13;;
40459;SDS011;26164;51.138;16.952;2023-01-16T08:46:51;7.22;;;1.48;;
40459;SDS011;26164;51.138;16.952;2023-01-16T08:49:47;4.63;;;1.10;;
40459;SDS011;26164;51.138;16.952;2023-01-16T08:52:32;7.25;;;1.92;;
40459;SDS011;26164;51.138;16.952;2023-01-16T08:54:59;7.60;;;1.85;;
40459;SDS011;26164;51.138;16.952;2023-01-16T08:57:26;6.65;;;2.03;;
40459;SDS011;26164;51.138;16.952;2023-01-16T08:59:53;6.32;;;1.63;;
40459;SDS011;26164;51.138;16.952;2023-01-16T09:02:20;9.68;;;1.50;;
40459;SDS011;26164;51.138;16.952;2023-01-16T09:04:46;6.22;;;2.08;;
40459;SDS011;26164;51.138;16.952;2023-01-16T09:07:13;9.43;;;1.52;;
40459;SDS011;26164;51.138;16.952;2023-01-16T09:09:40;7.50;;;1.52;;
40459;SDS011;26164;51.138;16.952;2023-01-16T09:12:27;4.90;;;1.55;;
40459;SDS011;26164;51.138;16.952;2023-01-16T09:15:14;4.45;;;1.50;;
40459;SDS011;26164;51.138;16.952;2023-01-16T09:17:40;6.85;;;1.42;;
40459;SDS011;26164;51.138;16.952;2023-01-16T09:20:06;3.72;;;1.15;;
40459;SDS011;26164;51.138;16.952;2023-01-16T09:22:35;4.00;;;1.17;;
40459;SDS011;26164;51.138;16.952;2023-01-16T09:25:03;10.00;;;1.40;;
40459;SDS011;26164;51.138;16.952;2023-01-16T09:27:31;8.32;;;1.30;;
40459;SDS011;26164;51.138;16.952;2023-01-16T09:29:57;3.70;;;1.13;;
40459;SDS011;26164;51.138;16.952;2023-01-16T09:32:23;5.30;;;1.23;;
40459;SDS011;26164;51.138;16.952;2023-01-16T09:34:51;7.00;;;1.63;;
40459;SDS011;26164;51.138;16.952;2023-01-16T09:37:20;3.17;;;0.90;;
40459;SDS011;26164;51.138;16.952;2023-01-16T09:40:00;5.65;;;1.25;;
40459;SDS011;26164;51.138;16.952;2023-01-16T09:45:36;9.68;;;1.40;;
40459;SDS011;26164;51.138;16.952;2023-01-16T09:48:12;5.97;;;1.50;;
40459;SDS011;26164;51.138;16.952;2023-01-16T09:50:50;4.85;;;1.58;;
40459;SDS011;26164;51.138;16.952;2023-01-16T09:53:21;6.38;;;1.58;;
40459;SDS011;26164;51.138;16.952;2023-01-16T09:56:16;6.20;;;1.80;;
40459;SDS011;26164;51.138;16.952;2023-01-16T09:59:11;6.88;;;2.17;;
40459;SDS011;26164;51.138;16.952;2023-01-16T10:01:45;6.70;;;1.90;;
40459;SDS011;26164;51.138;16.952;2023-01-16T10:04:18;8.00;;;2.40;;
40459;SDS011;26164;51.138;16.952;2023-01-16T10:09:53;6.65;;;1.88;;
40459;SDS011;26164;51.138;16.952;2023-01-16T10:12:44;7.25;;;1.90;;
40459;SDS011;26164;51.138;16.952;2023-01-16T10:18:19;4.78;;;1.40;;
40459;SDS011;26164;51.138;16.952;2023-01-16T10:21:04;5.47;;;1.17;;
40459;SDS011;26164;51.138;16.952;2023-01-16T10:24:02;6.22;;;1.63;;
40459;SDS011;26164;51.138;16.952;2023-01-16T10:26:47;7.00;;;1.00;;
40459;SDS011;26164;51.138;16.952;2023-01-16T10:32:03;9.85;;;1.50;;
40459;SDS011;26164;51.138;16.952;2023-01-16T10:34:38;11.15;;;1.20;;
40459;SDS011;26164;51.138;16.952;2023-01-16T10:37:20;10.95;;;1.77;;
40459;SDS011;26164;51.138;16.952;2023-01-16T10:39:53;6.95;;;1.45;;
40459;SDS011;26164;51.138;16.952;2023-01-16T10:42:24;6.15;;;1.33;;
40459;SDS011;26164;51.138;16.952;2023-01-16T10:45:22;5.10;;;1.30;;
40459;SDS011;26164;51.138;16.952;2023-01-16T10:48:10;3.72;;;1.05;;
40459;SDS011;26164;51.138;16.952;2023-01-16T10:50:57;3.95;;;0.70;;
40459;SDS011;26164;51.138;16.952;2023-01-16T10:53:27;5.15;;;1.20;;
40459;SDS011;26164;51.138;16.952;2023-01-16T10:55:53;5.72;;;1.08;;
40459;SDS011;26164;51.138;16.952;2023-01-16T10:58:28;4.80;;;1.30;;
40459;SDS011;26164;51.138;16.952;2023-01-16T11:03:39;8.07;;;1.30;;
40459;SDS011;26164;51.138;16.952;2023-01-16T11:06:20;5.10;;;1.60;;
40459;SDS011;26164;51.138;16.952;2023-01-16T11:08:48;6.40;;;1.20;;
40459;SDS011;26164;51.138;16.952;2023-01-16T11:11:18;6.38;;;1.55;;
40459;SDS011;26164;51.138;16.952;2023-01-16T11:14:11;9.35;;;1.52;;
40459;SDS011;26164;51.138;16.952;2023-01-16T11:20:16;5.22;;;1.10;;
40459;SDS011;26164;51.138;16.952;2023-01-16T11:22:44;6.35;;;1.00;;
40459;SDS011;26164;51.138;16.952;2023-01-16T11:25:28;9.45;;;1.00;;
40459;SDS011;26164;51.138;16.952;2023-01-16T11:27:55;4.10;;;1.20;;
40459;SDS011;26164;51.138;16.952;2023-01-16T11:30:32;4.95;;;0.90;;
40459;SDS011;26164;51.138;16.952;2023-01-16T11:33:12;3.83;;;1.00;;
40459;SDS011;26164;51.138;16.952;2023-01-16T11:35:41;7.78;;;1.30;;
40459;SDS011;26164;51.138;16.952;2023-01-16T11:38:16;5.78;;;1.40;;
40459;SDS011;26164;51.138;16.952;2023-01-16T11:40:44;5.65;;;2.20;;
40459;SDS011;26164;51.138;16.952;2023-01-16T11:43:13;8.43;;;1.75;;
40459;SDS011;26164;51.138;16.952;2023-01-16T11:45:59;7.18;;;1.60;;
40459;SDS011;26164;51.138;16.952;2023-01-16T11:51:09;8.38;;;1.50;;
40459;SDS011;26164;51.138;16.952;2023-01-16T11:53:42;11.60;;;2.30;;
40459;SDS011;26164;51.138;16.952;2023-01-16T11:56:33;9.55;;;1.80;;
40459;SDS011;26164;51.138;16.952;2023-01-16T11:59:25;3.40;;;1.02;;
40459;SDS011;26164;51.138;16.952;2023-01-16T12:04:46;4.30;;;1.40;;
40459;SDS011;26164;51.138;16.952;2023-01-16T12:07:39;3.85;;;1.52;;
40459;SDS011;26164;51.138;16.952;2023-01-16T12:10:17;7.28;;;2.28;;
40459;SDS011;26164;51.138;16.952;2023-01-16T12:12:58;8.55;;;2.80;;
40459;SDS011;26164;51.138;16.952;2023-01-16T12:18:44;6.55;;;1.92;;
40459;SDS011;26164;51.138;16.952;2023-01-16T12:21:31;5.47;;;1.83;;
40459;SDS011;26164;51.138;16.952;2023-01-16T12:26:56;7.25;;;1.75;;
40459;SDS011;26164;51.138;16.952;2023-01-16T12:29:56;8.98;;;1.70;;
40459;SDS011;26164;51.138;16.952;2023-01-16T12:38:44;4.82;;;1.90;;
40459;SDS011;26164;51.138;16.952;2023-01-16T12:41:24;4.95;;;1.40;;
40459;SDS011;26164;51.138;16.952;2023-01-16T12:44:27;5.22;;;1.60;;
40459;SDS011;26164;51.138;16.952;2023-01-16T12:49:54;5.82;;;1.80;;
40459;SDS011;26164;51.138;16.952;2023-01-16T12:55:32;5.25;;;1.33;;
40459;SDS011;26164;51.138;16.952;2023-01-16T12:58:14;5.82;;;1.48;;
40459;SDS011;26164;51.138;16.952;2023-01-16T13:06:50;7.22;;;2.58;;
40459;SDS011;26164;51.138;16.952;2023-01-16T13:12:39;6.20;;;1.58;;
40459;SDS011;26164;51.138;16.952;2023-01-16T13:15:26;5.85;;;1.33;;
40459;SDS011;26164;51.138;16.952;2023-01-16T13:18:34;5.35;;;1.65;;
40459;SDS011;26164;51.138;16.952;2023-01-16T13:20:56;4.35;;;1.33;;
40459;SDS011;26164;51.138;16.952;2023-01-16T13:23:36;5.93;;;1.40;;
40459;SDS011;26164;51.138;16.952;2023-01-16T13:26:08;4.57;;;1.55;;
40459;SDS011;26164;51.138;16.952;2023-01-16T13:32:12;3.55;;;1.38;;
40459;SDS011;26164;51.138;16.952;2023-01-16T13:41:09;8.27;;;2.15;;
40459;SDS011;26164;51.138;16.952;2023-01-16T13:46:34;6.63;;;1.73;;
40459;SDS011;26164;51.138;16.952;2023-01-16T13:49:02;6.35;;;1.85;;
40459;SDS011;26164;51.138;16.952;2023-01-16T13:51:42;5.72;;;1.52;;
40459;SDS011;26164;51.138;16.952;2023-01-16T13:54:14;6.70;;;1.40;;
40459;SDS011;26164;51.138;16.952;2023-01-16T13:56:47;6.93;;;1.80;;
40459;SDS011;26164;51.138;16.952;2023-01-16T13:59:28;10.35;;;1.65;;
40459;SDS011;26164;51.138;16.952;2023-01-16T14:01:55;10.20;;;1.45;;
40459;SDS011;26164;51.138;16.952;2023-01-16T14:04:25;8.57;;;1.83;;
40459;SDS011;26164;51.138;16.952;2023-01-16T14:07:00;7.55;;;1.60;;
40459;SDS011;26164;51.138;16.952;2023-01-16T14:12:41;5.90;;;2.00;;
40459;SDS011;26164;51.138;16.952;2023-01-16T14:18:19;7.25;;;1.95;;
40459;SDS011;26164;51.138;16.952;2023-01-16T14:23:24;9.57;;;1.70;;
40459;SDS011;26164;51.138;16.952;2023-01-16T14:29:13;13.68;;;2.13;;
40459;SDS011;26164;51.138;16.952;2023-01-16T14:34:40;8.82;;;2.50;;
40459;SDS011;26164;51.138;16.952;2023-01-16T14:37:36;9.15;;;2.40;;
40459;SDS011;26164;51.138;16.952;2023-01-16T14:42:45;8.25;;;3.03;;
40459;SDS011;26164;51.138;16.952;2023-01-16T14:45:34;12.88;;;3.03;;
40459;SDS011;26164;51.138;16.952;2023-01-16T14:54:02;7.53;;;2.97;;
40459;SDS011;26164;51.138;16.952;2023-01-16T14:56:57;10.82;;;3.20;;
40459;SDS011;26164;51.138;16.952;2023-01-16T15:02:31;9.40;;;3.28;;
40459;SDS011;26164;51.138;16.952;2023-01-16T15:10:25;6.57;;;2.80;;
40459;SDS011;26164;51.138;16.952;2023-01-16T15:13:16;6.80;;;2.40;;
40459;SDS011;26164;51.138;16.952;2023-01-16T15:16:04;6.38;;;2.53;;
40459;SDS011;26164;51.138;16.952;2023-01-16T15:18:39;9.05;;;3.08;;
40459;SDS011;26164;51.138;16.952;2023-01-16T15:21:26;7.35;;;3.05;;
40459;SDS011;26164;51.138;16.952;2023-01-16T15:24:12;6.25;;;2.55;;
40459;SDS011;26164;51.138;16.952;2023-01-16T15:29:32;7.03;;;2.53;;
40459;SDS011;26164;51.138;16.952;2023-01-16T15:32:15;6.05;;;2.65;;
40459;SDS011;26164;51.138;16.952;2023-01-16T15:37:50;10.77;;;3.13;;
40459;SDS011;26164;51.138;16.952;2023-01-16T15:40:28;10.80;;;4.20;;
40459;SDS011;26164;51.138;16.952;2023-01-16T15:42:55;10.93;;;4.07;;
40459;SDS011;26164;51.138;16.952;2023-01-16T15:45:48;6.55;;;3.30;;
40459;SDS011;26164;51.138;16.952;2023-01-16T15:51:30;6.47;;;2.53;;
40459;SDS011;26164;51.138;16.952;2023-01-16T15:53:56;8.48;;;3.05;;
40459;SDS011;26164;51.138;16.952;2023-01-16T15:59:04;9.95;;;3.22;;
40459;SDS011;26164;51.138;16.952;2023-01-16T16:01:45;10.27;;;3.70;;
40459;SDS011;26164;51.138;16.952;2023-01-16T16:04:11;7.80;;;3.13;;
40459;SDS011;26164;51.138;16.952;2023-01-16T16:06:37;10.55;;;3.17;;
40459;SDS011;26164;51.138;16.952;2023-01-16T16:09:06;12.80;;;3.28;;
40459;SDS011;26164;51.138;16.952;2023-01-16T16:11:43;7.38;;;3.40;;
40459;SDS011;26164;51.138;16.952;2023-01-16T16:17:17;9.07;;;3.72;;
40459;SDS011;26164;51.138;16.952;2023-01-16T16:22:59;11.23;;;3.60;;
40459;SDS011;26164;51.138;16.952;2023-01-16T16:25:35;6.30;;;3.10;;
40459;SDS011;26164;51.138;16.952;2023-01-16T16:28:13;8.77;;;3.13;;
40459;SDS011;26164;51.138;16.952;2023-01-16T16:30:43;10.20;;;3.58;;
40459;SDS011;26164;51.138;16.952;2023-01-16T16:33:17;10.93;;;3.58;;
40459;SDS011;26164;51.138;16.952;2023-01-16T16:35:48;7.72;;;3.22;;
40459;SDS011;26164;51.138;16.952;2023-01-16T16:38:42;15.45;;;3.60;;
40459;SDS011;26164;51.138;16.952;2023-01-16T16:48:53;14.57;;;5.47;;
40459;SDS011;26164;51.138;16.952;2023-01-16T16:51:30;12.57;;;4.80;;
40459;SDS011;26164;51.138;16.952;2023-01-16T16:53:57;13.35;;;5.40;;
40459;SDS011;26164;51.138;16.952;2023-01-16T16:56:56;13.77;;;4.90;;
40459;SDS011;26164;51.138;16.952;2023-01-16T16:59:26;14.48;;;4.63;;
40459;SDS011;26164;51.138;16.952;2023-01-16T17:02:05;12.23;;;4.80;;
40459;SDS011;26164;51.138;16.952;2023-01-16T17:04:33;9.95;;;4.40;;
40459;SDS011;26164;51.138;16.952;2023-01-16T17:07:01;14.85;;;5.15;;
40459;SDS011;26164;51.138;16.952;2023-01-16T17:09:27;13.55;;;5.25;;
40459;SDS011;26164;51.138;16.952;2023-01-16T17:12:15;16.75;;;5.07;;
40459;SDS011;26164;51.138;16.952;2023-01-16T17:14:43;10.68;;;4.18;;
40459;SDS011;26164;51.138;16.952;2023-01-16T17:17:17;10.02;;;4.45;;
40459;SDS011;26164;51.138;16.952;2023-01-16T17:19:44;10.98;;;4.80;;
40459;SDS011;26164;51.138;16.952;2023-01-16T17:22:12;14.77;;;4.65;;
40459;SDS011;26164;51.138;16.952;2023-01-16T17:24:38;16.67;;;5.45;;
40459;SDS011;26164;51.138;16.952;2023-01-16T17:27:17;13.55;;;4.85;;
40459;SDS011;26164;51.138;16.952;2023-01-16T17:29:43;14.43;;;5.15;;
40459;SDS011;26164;51.138;16.952;2023-01-16T17:34:53;12.85;;;4.57;;
40459;SDS011;26164;51.138;16.952;2023-01-16T17:37:19;11.50;;;4.88;;
40459;SDS011;26164;51.138;16.952;2023-01-16T17:39:46;12.65;;;4.47;;
40459;SDS011;26164;51.138;16.952;2023-01-16T17:42:12;12.20;;;5.28;;
40459;SDS011;26164;51.138;16.952;2023-01-16T17:44:40;12.82;;;4.65;;
40459;SDS011;26164;51.138;16.952;2023-01-16T17:47:25;12.35;;;4.72;;
40459;SDS011;26164;51.138;16.952;2023-01-16T17:49:52;11.20;;;4.50;;
40459;SDS011;26164;51.138;16.952;2023-01-16T17:53:04;12.00;;;4.75;;
40459;SDS011;26164;51.138;16.952;2023-01-16T17:55:30;11.85;;;5.03;;
40459;SDS011;26164;51.138;16.952;2023-01-16T17:58:24;13.45;;;5.38;;
40459;SDS011;26164;51.138;16.952;2023-01-16T18:01:12;14.02;;;5.55;;
40459;SDS011;26164;51.138;16.952;2023-01-16T18:03:44;17.02;;;5.40;;
40459;SDS011;26164;51.138;16.952;2023-01-16T18:06:51;12.52;;;5.00;;
40459;SDS011;26164;51.138;16.952;2023-01-16T18:29:53;17.17;;;7.05;;
40459;SDS011;26164;51.138;16.952;2023-01-16T18:36:20;19.63;;;6.85;;
40459;SDS011;26164;51.138;16.952;2023-01-16T18:38:55;16.40;;;5.90;;
40459;SDS011;26164;51.138;16.952;2023-01-16T18:50:30;16.58;;;6.88;;
40459;SDS011;26164;51.138;16.952;2023-01-16T18:53:58;15.50;;;7.47;;
40459;SDS011;26164;51.138;16.952;2023-01-16T19:09:38;24.67;;;9.45;;
40459;SDS011;26164;51.138;16.952;2023-01-16T19:13:58;25.83;;;11.23;;
40459;SDS011;26164;51.138;16.952;2023-01-16T20:12:23;41.55;;;19.00;;
40459;SDS011;26164;51.138;16.952;2023-01-16T20:15:06;37.05;;;17.90;;
40459;SDS011;26164;51.138;16.952;2023-01-16T20:26:30;39.40;;;18.42;;
40459;SDS011;26164;51.138;16.952;2023-01-16T20:34:23;38.30;;;17.80;;
40459;SDS011;26164;51.138;16.952;2023-01-16T20:45:12;45.60;;;19.42;;
40459;SDS011;26164;51.138;16.952;2023-01-16T20:48:11;40.53;;;20.00;;
40459;SDS011;26164;51.138;16.952;2023-01-16T20:51:03;41.40;;;19.38;;
40459;SDS011;26164;51.138;16.952;2023-01-16T20:54:31;45.40;;;20.48;;
40459;SDS011;26164;51.138;16.952;2023-01-16T20:57:35;50.00;;;21.27;;
40459;SDS011;26164;51.138;16.952;2023-01-16T21:00:30;44.83;;;22.10;;
40459;SDS011;26164;51.138;16.952;2023-01-16T21:03:08;44.67;;;21.80;;
40459;SDS011;26164;51.138;16.952;2023-01-16T21:06:01;46.05;;;22.70;;
40459;SDS011;26164;51.138;16.952;2023-01-16T21:08:47;49.30;;;22.42;;
40459;SDS011;26164;51.138;16.952;2023-01-16T21:15:09;50.80;;;23.73;;
40459;SDS011;26164;51.138;16.952;2023-01-16T21:18:36;55.80;;;24.60;;
40459;SDS011;26164;51.138;16.952;2023-01-16T21:21:22;51.05;;;23.67;;
40459;SDS011;26164;51.138;16.952;2023-01-16T21:24:19;52.22;;;24.73;;
40459;SDS011;26164;51.138;16.952;2023-01-16T21:27:09;52.42;;;24.77;;
40459;SDS011;26164;51.138;16.952;2023-01-16T21:29:45;61.08;;;24.70;;
40459;SDS011;26164;51.138;16.952;2023-01-16T21:32:12;54.25;;;25.40;;
40459;SDS011;26164;51.138;16.952;2023-01-16T21:34:41;56.67;;;24.77;;
40459;SDS011;26164;51.138;16.952;2023-01-16T21:37:26;53.15;;;26.83;;
40459;SDS011;26164;51.138;16.952;2023-01-16T21:40:09;49.05;;;25.10;;
40459;SDS011;26164;51.138;16.952;2023-01-16T22:40:08;64.35;;;29.38;;
40459;SDS011;26164;51.138;16.952;2023-01-16T22:42:52;67.05;;;31.30;;
40459;SDS011;26164;51.138;16.952;2023-01-16T22:45:44;59.38;;;29.42;;
40459;SDS011;26164;51.138;16.952;2023-01-16T22:48:30;64.03;;;31.73;;
40459;SDS011;26164;51.138;16.952;2023-01-16T22:51:03;62.63;;;31.35;;
40459;SDS011;26164;51.138;16.952;2023-01-16T22:53:37;67.75;;;33.70;;
40459;SDS011;26164;51.138;16.952;2023-01-16T22:56:10;66.20;;;34.15;;
40459;SDS011;26164;51.138;16.952;2023-01-16T22:58:39;77.75;;;35.47;;
40459;SDS011;26164;51.138;16.952;2023-01-16T23:01:09;70.15;;;35.78;;
40459;SDS011;26164;51.138;16.952;2023-01-16T23:03:56;70.93;;;34.55;;
40459;SDS011;26164;51.138;16.952;2023-01-16T23:06:41;69.03;;;36.28;;
40459;SDS011;26164;51.138;16.952;2023-01-16T23:11:54;71.20;;;34.53;;
40459;SDS011;26164;51.138;16.952;2023-01-16T23:14:22;68.13;;;36.75;;
40459;SDS011;26164;51.138;16.952;2023-01-16T23:17:20;75.63;;;36.17;;
40459;SDS011;26164;51.138;16.952;2023-01-16T23:20:03;75.20;;;37.28;;
40459;SDS011;26164;51.138;16.952;2023-01-16T23:22:50;69.63;;;34.90;;
40459;SDS011;26164;51.138;16.952;2023-01-16T23:25:25;72.55;;;35.70;;
40459;SDS011;26164;51.138;16.952;2023-01-16T23:28:15;78.15;;;38.10;;
40459;SDS011;26164;51.138;16.952;2023-01-16T23:31:23;77.45;;;37.42;;
40459;SDS011;26164;51.138;16.952;2023-01-16T23:34:29;85.55;;;39.00;;
40459;SDS011;26164;51.138;16.952;2023-01-16T23:37:04;74.13;;;37.05;;
40459;SDS011;26164;51.138;16.952;2023-01-16T23:39:38;82.10;;;38.90;;
40459;SDS011;26164;51.138;16.952;2023-01-16T23:42:07;80.15;;;39.10;;
40459;SDS011;26164;51.138;16.952;2023-01-16T23:44:55;82.72;;;41.20;;
40459;SDS011;26164;51.138;16.952;2023-01-16T23:47:31;80.35;;;40.13;;
40459;SDS011;26164;51.138;16.952;2023-01-16T23:50:05;82.18;;;40.65;;
40459;SDS011;26164;51.138;16.952;2023-01-16T23:52:39;80.32;;;41.25;;
40459;SDS011;26164;51.138;16.952;2023-01-16T23:55:10;84.63;;;41.40;;
